Terminal Aerodrome Forecast
Issued by NWS

Home | Current Version | Previous Version | Text Only | Print | Product List | Glossary Off
Versions: 1 2 3 4 5 6 7 8 9 10 11 12 13 14 15 16 17 18 19 20 21

791
FTUS43 KABR 242016 AAA
TAFATY
TAF AMD
KATY 242016Z 2420/2518 01021G30KT P6SM BKN030
     FM242300 35017G25KT P6SM SCT030
     FM250700 32009KT P6SM SCT050
     FM251200 27008KT P6SM SCT150=

USA.gov is the U.S. government's official web portal to all federal, state and local government web resources and services.